createdAt,value
2023-02-28T00:01:30.472Z,101892.00
2023-02-28T00:03:58.888Z,101899.00
2023-02-28T00:06:30.587Z,101913.00
2023-02-28T00:08:59.587Z,101908.00
2023-02-28T00:11:30.749Z,101908.00
2023-02-28T00:13:58.897Z,101904.00
2023-02-28T00:16:26.760Z,101902.00
2023-02-28T00:18:54.801Z,101906.00
2023-02-28T00:21:22.929Z,101907.00
2023-02-28T00:23:50.807Z,101899.00
2023-02-28T00:26:21.589Z,101910.00
2023-02-28T00:28:50.840Z,101905.00
2023-02-28T00:31:19.103Z,101907.00
2023-02-28T00:33:47.299Z,101909.00
2023-02-28T00:36:16.253Z,101902.00
2023-02-28T00:38:44.238Z,101893.00
2023-02-28T00:41:12.078Z,101902.00
2023-02-28T00:43:40.586Z,101906.00
2023-02-28T00:46:08.639Z,101896.00
2023-02-28T00:48:37.095Z,101897.00
2023-02-28T00:51:05.446Z,101899.00
2023-02-28T00:53:33.912Z,101903.00
2023-02-28T00:56:01.951Z,101894.00
2023-02-28T00:58:29.900Z,101896.00
2023-02-28T04:47:48.290Z,101882.00
2023-02-28T04:50:16.348Z,101892.00
2023-02-28T04:52:44.104Z,101889.00
2023-02-28T04:55:12.277Z,101895.00
2023-02-28T04:57:39.981Z,101889.00
2023-02-28T05:00:12.701Z,101880.00
2023-02-28T05:05:57.367Z,101882.00
2023-02-28T05:08:26.357Z,101880.00
2023-02-28T05:10:54.393Z,101878.00
2023-02-28T05:13:22.141Z,101886.00
2023-02-28T05:15:49.978Z,101881.00
2023-02-28T05:18:17.903Z,101887.00
2023-02-28T05:20:45.697Z,101893.00
2023-02-28T05:23:14.602Z,101895.00
2023-02-28T05:25:43.092Z,101902.00
2023-02-28T05:28:11.212Z,101896.00
2023-02-28T05:30:39.020Z,101892.00
2023-02-28T05:33:07.040Z,101899.00
2023-02-28T05:35:34.935Z,101891.00
2023-02-28T05:38:02.990Z,101905.00
2023-02-28T05:40:30.865Z,101891.00
2023-02-28T05:42:58.757Z,101905.00
2023-02-28T05:45:26.540Z,101909.00
2023-02-28T05:47:57.454Z,101911.00
2023-02-28T05:50:25.183Z,101903.00
2023-02-28T05:52:53.577Z,101907.00
2023-02-28T05:55:21.689Z,101918.00
2023-02-28T05:57:49.649Z,101905.00
2023-02-28T06:00:18.964Z,101914.00
2023-02-28T06:02:46.843Z,101908.00
2023-02-28T06:05:19.077Z,101918.00
2023-02-28T06:07:46.830Z,101917.00
2023-02-28T06:10:15.124Z,101924.00
2023-02-28T06:12:43.169Z,101933.00
2023-02-28T06:15:15.991Z,101931.00
2023-02-28T06:17:44.907Z,101932.00
2023-02-28T06:20:16.680Z,101927.00
2023-02-28T06:22:44.735Z,101929.00
2023-02-28T06:25:12.717Z,101928.00
2023-02-28T06:27:40.498Z,101924.00
2023-02-28T06:30:13.804Z,101934.00
2023-02-28T06:32:41.666Z,101934.00
2023-02-28T06:35:09.752Z,101938.00
2023-02-28T06:37:38.396Z,101939.00
2023-02-28T06:40:08.045Z,101941.00
2023-02-28T06:42:35.934Z,101943.00
2023-02-28T06:45:10.471Z,101944.00
2023-02-28T06:47:40.014Z,101949.00
2023-02-28T06:50:10.579Z,101944.00
2023-02-28T06:52:38.782Z,101963.00
2023-02-28T06:55:08.425Z,101958.00
2023-02-28T06:57:37.252Z,101962.00
2023-02-28T07:00:08.840Z,101950.00
2023-02-28T07:02:43.125Z,101954.00
2023-02-28T07:05:10.968Z,101953.00
2023-02-28T07:07:41.768Z,101958.00
2023-02-28T07:10:10.571Z,101969.00
2023-02-28T07:12:38.868Z,101967.00
2023-02-28T07:15:07.645Z,101967.00
2023-02-28T07:17:35.585Z,101962.00
2023-02-28T07:20:05.644Z,101957.00
2023-02-28T07:22:33.383Z,101971.00
2023-02-28T07:25:01.155Z,101964.00
2023-02-28T07:27:29.084Z,101966.00
2023-02-28T07:29:56.913Z,101965.00
2023-02-28T07:32:24.908Z,101959.00
2023-02-28T07:34:52.953Z,101963.00
2023-02-28T07:37:21.165Z,101970.00
2023-02-28T07:39:49.779Z,101965.00
2023-02-28T07:42:17.530Z,101968.00
2023-02-28T07:44:45.725Z,101960.00
2023-02-28T07:47:13.699Z,101968.00
2023-02-28T07:49:41.505Z,101968.00
2023-02-28T07:52:11.361Z,101974.00
2023-02-28T07:54:40.200Z,101967.00
2023-02-28T07:57:11.620Z,101971.00
2023-02-28T07:59:39.421Z,101973.00
2023-02-28T08:02:07.636Z,101977.00
2023-02-28T08:04:36.718Z,101972.00
2023-02-28T08:07:04.676Z,101982.00
2023-02-28T08:09:32.647Z,101985.00
2023-02-28T08:12:00.410Z,101991.00
2023-02-28T08:14:28.616Z,101985.00
2023-02-28T08:16:56.890Z,101985.00
2023-02-28T08:19:24.967Z,101983.00
2023-02-28T08:21:52.806Z,101982.00
2023-02-28T08:24:20.597Z,101991.00
2023-02-28T08:26:48.444Z,101992.00
2023-02-28T08:29:16.378Z,101990.00
2023-02-28T08:31:44.524Z,101990.00
2023-02-28T08:34:14.507Z,102003.00
2023-02-28T08:36:43.899Z,101996.00
2023-02-28T08:39:16.613Z,101994.00
2023-02-28T08:41:46.066Z,101999.00
2023-02-28T08:44:14.889Z,101996.00
2023-02-28T08:46:42.869Z,102002.00
2023-02-28T08:49:12.891Z,102003.00
2023-02-28T08:51:40.963Z,102003.00
2023-02-28T08:54:13.669Z,101998.00
2023-02-28T08:56:41.660Z,102009.00
2023-02-28T08:59:11.423Z,102005.00
2023-02-28T09:01:39.443Z,102015.00
2023-02-28T09:04:09.764Z,102012.00
2023-02-28T09:06:37.921Z,102016.00
2023-02-28T09:09:07.703Z,102017.00
2023-02-28T09:11:36.801Z,102009.00
2023-02-28T09:14:05.014Z,102014.00
2023-02-28T09:16:36.893Z,102013.00
2023-02-28T09:19:05.224Z,102014.00
2023-02-28T09:21:33.396Z,102016.00
2023-02-28T09:24:01.379Z,102026.00
2023-02-28T09:26:38.975Z,102022.00
2023-02-28T09:29:12.407Z,102014.00
2023-02-28T09:31:40.465Z,102028.00
2023-02-28T09:34:09.071Z,102029.00
2023-02-28T09:36:45.225Z,102037.00
2023-02-28T09:39:16.899Z,102031.00
2023-02-28T09:41:52.140Z,102034.00
2023-02-28T09:44:49.792Z,102036.00
2023-02-28T09:47:20.828Z,102033.00
2023-02-28T09:49:49.761Z,102035.00
2023-02-28T09:52:23.553Z,102044.00
2023-02-28T09:54:51.473Z,102041.00
2023-02-28T09:57:40.300Z,102042.00
2023-02-28T10:00:11.393Z,102045.00
2023-02-28T10:02:50.195Z,102049.00
2023-02-28T10:05:40.581Z,102054.00
2023-02-28T10:08:30.421Z,102048.00
2023-02-28T10:11:05.687Z,102056.00
2023-02-28T10:14:13.985Z,102058.00
2023-02-28T10:16:49.189Z,102060.00
2023-02-28T10:19:38.540Z,102059.00
2023-02-28T10:22:36.357Z,102061.00
2023-02-28T10:25:20.996Z,102066.00
2023-02-28T10:27:48.760Z,102068.00
2023-02-28T10:30:16.686Z,102067.00
2023-02-28T10:32:54.841Z,102064.00
2023-02-28T10:35:24.762Z,102062.00
2023-02-28T10:37:56.998Z,102064.00
2023-02-28T10:40:24.753Z,102061.00
2023-02-28T10:43:15.912Z,102069.00
2023-02-28T10:46:27.070Z,102060.00
2023-02-28T10:49:21.711Z,102069.00
2023-02-28T10:51:55.998Z,102070.00
2023-02-28T10:54:36.551Z,102061.00
2023-02-28T10:57:19.605Z,102068.00
2023-02-28T10:59:51.892Z,102076.00
2023-02-28T11:02:39.513Z,102066.00
2023-02-28T11:05:31.480Z,102062.00
2023-02-28T11:08:08.125Z,102063.00
2023-02-28T11:10:36.563Z,102057.00
2023-02-28T11:13:05.090Z,102056.00
2023-02-28T11:15:35.463Z,102056.00
2023-02-28T11:18:14.022Z,102054.00
2023-02-28T11:20:42.350Z,102051.00
2023-02-28T11:23:14.799Z,102060.00
2023-02-28T11:25:49.825Z,102055.00
2023-02-28T11:28:35.360Z,102043.00
2023-02-28T11:31:23.627Z,102045.00
2023-02-28T11:33:57.111Z,102038.00
2023-02-28T11:36:28.618Z,102043.00
2023-02-28T11:39:05.542Z,102044.00
2023-02-28T11:42:09.099Z,102033.00
2023-02-28T11:44:42.904Z,102028.00
2023-02-28T11:47:16.571Z,102033.00
2023-02-28T11:49:57.249Z,102031.00
2023-02-28T11:52:52.756Z,102024.00
2023-02-28T11:55:43.296Z,102035.00
2023-02-28T11:58:33.119Z,102028.00
2023-02-28T12:01:17.701Z,102024.00
2023-02-28T12:04:18.243Z,102032.00
2023-02-28T12:07:01.138Z,102026.00
2023-02-28T12:09:47.681Z,102028.00
2023-02-28T12:12:40.360Z,102035.00
2023-02-28T12:15:34.056Z,102021.00
2023-02-28T12:18:11.605Z,102025.00
2023-02-28T12:21:03.126Z,102020.00
2023-02-28T12:23:57.655Z,102018.00
2023-02-28T12:26:48.563Z,102018.00
2023-02-28T12:29:24.073Z,102033.00
2023-02-28T12:32:12.737Z,102029.00
2023-02-28T12:35:14.601Z,102033.00
2023-02-28T12:37:51.710Z,102021.00
2023-02-28T12:40:25.088Z,102025.00
2023-02-28T12:43:01.997Z,102023.00
2023-02-28T12:45:51.529Z,102018.00
2023-02-28T12:48:47.330Z,102019.00
2023-02-28T12:51:16.507Z,102014.00
2023-02-28T12:53:44.372Z,102008.00
2023-02-28T12:56:21.762Z,102005.00
2023-02-28T12:58:53.172Z,101992.00
2023-02-28T13:01:52.302Z,101999.00
2023-02-28T13:04:38.845Z,101986.00
2023-02-28T13:07:17.041Z,101989.00
2023-02-28T13:09:54.153Z,101988.00
2023-02-28T13:12:24.058Z,101982.00
2023-02-28T13:14:52.469Z,101986.00
2023-02-28T13:17:22.474Z,101965.00
2023-02-28T13:20:00.357Z,101972.00
2023-02-28T13:22:41.819Z,101965.00
2023-02-28T13:25:34.534Z,101957.00
2023-02-28T13:28:05.382Z,101962.00
2023-02-28T13:30:51.810Z,101959.00
2023-02-28T13:33:31.908Z,101949.00
2023-02-28T13:36:18.669Z,101954.00
2023-02-28T13:38:47.533Z,101955.00
2023-02-28T13:41:30.923Z,101951.00
2023-02-28T13:44:08.058Z,101961.00
2023-02-28T13:46:51.902Z,101954.00
2023-02-28T13:49:35.214Z,101953.00
2023-02-28T13:52:17.607Z,101958.00
2023-02-28T13:54:51.776Z,101956.00
2023-02-28T13:57:31.771Z,101956.00
2023-02-28T14:00:19.282Z,101953.00
2023-02-28T14:02:50.167Z,101960.00
2023-02-28T14:05:22.836Z,101961.00
2023-02-28T14:07:59.490Z,101964.00
2023-02-28T14:10:45.886Z,101957.00
2023-02-28T14:13:35.015Z,101965.00
2023-02-28T14:16:08.317Z,101965.00
2023-02-28T14:18:38.165Z,101963.00
2023-02-28T14:21:44.693Z,101959.00
2023-02-28T14:24:44.524Z,101958.00
2023-02-28T14:27:15.365Z,101957.00
2023-02-28T14:29:52.670Z,101958.00
2023-02-28T14:32:33.007Z,101958.00
2023-02-28T14:35:25.557Z,101958.00
2023-02-28T14:37:54.042Z,101951.00
2023-02-28T14:40:28.043Z,101945.00
2023-02-28T14:43:04.261Z,101948.00
2023-02-28T14:45:34.176Z,101941.00
2023-02-28T14:48:03.406Z,101946.00
2023-02-28T14:50:36.770Z,101933.00
2023-02-28T14:53:05.509Z,101942.00
2023-02-28T14:55:35.782Z,101935.00
2023-02-28T14:58:07.862Z,101935.00
2023-02-28T15:00:40.994Z,101934.00
2023-02-28T15:03:31.413Z,101932.00
2023-02-28T15:06:08.317Z,101943.00
2023-02-28T15:08:39.041Z,101934.00
2023-02-28T15:11:10.589Z,101930.00
2023-02-28T15:13:47.728Z,101921.00
2023-02-28T15:16:22.103Z,101927.00
2023-02-28T15:18:57.347Z,101919.00
2023-02-28T15:21:29.796Z,101926.00
2023-02-28T15:24:01.146Z,101916.00
2023-02-28T15:26:40.524Z,101910.00
2023-02-28T15:29:14.737Z,101914.00
2023-02-28T15:31:57.394Z,101906.00
2023-02-28T15:34:43.122Z,101912.00
2023-02-28T15:37:41.954Z,101910.00
2023-02-28T15:40:33.018Z,101911.00
2023-02-28T15:43:28.776Z,101911.00
2023-02-28T15:46:10.962Z,101916.00
2023-02-28T15:48:46.238Z,101914.00
2023-02-28T15:51:21.147Z,101923.00
2023-02-28T15:54:01.835Z,101916.00
2023-02-28T15:56:44.676Z,101910.00
2023-02-28T15:59:31.357Z,101909.00
2023-02-28T16:02:05.476Z,101901.00
2023-02-28T16:04:33.597Z,101904.00
2023-02-28T16:07:02.460Z,101898.00
2023-02-28T16:09:34.297Z,101901.00
2023-02-28T16:12:04.375Z,101900.00
2023-02-28T16:14:32.827Z,101896.00
2023-02-28T16:17:10.155Z,101895.00
2023-02-28T16:19:38.327Z,101901.00
2023-02-28T16:22:06.418Z,101904.00
2023-02-28T16:24:34.525Z,101907.00
2023-02-28T16:27:02.592Z,101902.00
2023-02-28T16:29:36.415Z,101890.00
2023-02-28T16:32:07.703Z,101898.00
2023-02-28T16:34:35.855Z,101899.00
2023-02-28T16:37:04.034Z,101903.00
2023-02-28T16:39:31.965Z,101905.00
2023-02-28T16:41:59.935Z,101908.00
2023-02-28T16:44:31.678Z,101902.00
2023-02-28T16:47:02.290Z,101911.00
2023-02-28T16:49:30.645Z,101912.00
2023-02-28T16:51:58.597Z,101908.00
2023-02-28T16:54:27.867Z,101909.00
2023-02-28T16:56:55.990Z,101903.00
2023-02-28T16:59:25.978Z,101901.00
2023-02-28T17:01:54.325Z,101914.00
2023-02-28T17:04:22.209Z,101912.00
2023-02-28T17:06:50.114Z,101921.00
2023-02-28T17:09:28.311Z,101920.00
2023-02-28T17:11:59.096Z,101920.00
2023-02-28T17:14:26.978Z,101918.00
2023-02-28T17:16:54.996Z,101923.00
2023-02-28T17:19:25.475Z,101934.00
2023-02-28T17:21:54.038Z,101923.00
2023-02-28T17:24:30.250Z,101917.00
2023-02-28T17:27:01.838Z,101914.00
2023-02-28T17:29:30.250Z,101924.00
2023-02-28T17:32:00.810Z,101915.00
2023-02-28T17:34:32.129Z,101911.00
2023-02-28T17:37:00.174Z,101918.00
2023-02-28T17:39:28.392Z,101922.00
2023-02-28T17:41:57.136Z,101916.00
2023-02-28T17:44:26.161Z,101912.00
2023-02-28T17:46:56.103Z,101918.00
2023-02-28T17:49:24.440Z,101918.00
2023-02-28T17:51:53.002Z,101928.00
2023-02-28T17:54:21.219Z,101920.00
2023-02-28T17:56:49.468Z,101919.00
2023-02-28T17:59:17.388Z,101915.00
2023-02-28T18:01:45.252Z,101918.00
2023-02-28T18:04:13.365Z,101923.00
2023-02-28T18:06:51.192Z,101920.00
2023-02-28T18:09:24.464Z,101925.00
2023-02-28T18:11:53.541Z,101922.00
2023-02-28T18:14:24.673Z,101914.00
2023-02-28T18:16:53.759Z,101926.00
2023-02-28T18:19:21.871Z,101931.00
2023-02-28T18:21:51.705Z,101921.00
2023-02-28T18:24:23.200Z,101919.00
2023-02-28T18:26:51.705Z,101924.00
2023-02-28T18:29:25.198Z,101916.00
2023-02-28T18:31:54.246Z,101921.00
2023-02-28T18:34:23.620Z,101916.00
2023-02-28T18:36:53.462Z,101913.00
2023-02-28T18:39:21.634Z,101904.00
2023-02-28T18:41:49.694Z,101904.00
2023-02-28T18:44:20.314Z,101905.00
2023-02-28T18:46:49.941Z,101908.00
2023-02-28T18:49:18.735Z,101897.00
2023-02-28T18:51:46.937Z,101904.00
2023-02-28T18:54:16.038Z,101903.00
2023-02-28T18:56:46.004Z,101901.00
2023-02-28T18:59:14.413Z,101900.00
2023-02-28T19:01:42.693Z,101901.00
2023-02-28T19:04:14.204Z,101892.00
2023-02-28T19:06:42.567Z,101887.00
2023-02-28T19:09:10.833Z,101890.00
2023-02-28T19:11:38.929Z,101894.00
2023-02-28T19:14:09.991Z,101886.00
2023-02-28T19:16:38.108Z,101887.00
2023-02-28T19:19:06.125Z,101889.00
2023-02-28T19:21:36.988Z,101889.00
2023-02-28T19:24:05.970Z,101897.00
2023-02-28T19:26:34.090Z,101890.00
2023-02-28T19:29:04.505Z,101902.00
2023-02-28T19:31:35.793Z,101908.00
2023-02-28T19:34:03.861Z,101904.00
2023-02-28T19:36:32.028Z,101904.00
2023-02-28T19:39:00.252Z,101894.00
2023-02-28T19:41:28.329Z,101900.00
2023-02-28T19:43:56.299Z,101889.00
2023-02-28T19:46:24.041Z,101896.00
2023-02-28T19:48:54.738Z,101899.00
2023-02-28T19:51:23.422Z,101898.00
2023-02-28T19:53:51.566Z,101895.00
2023-02-28T19:56:19.770Z,101903.00
2023-02-28T19:58:47.823Z,101903.00
2023-02-28T20:01:18.371Z,101898.00
2023-02-28T20:03:57.204Z,101914.00
2023-02-28T20:06:25.358Z,101909.00
2023-02-28T20:08:57.862Z,101917.00
2023-02-28T20:11:26.202Z,101912.00
2023-02-28T20:13:54.946Z,101918.00
2023-02-28T20:16:23.212Z,101919.00
2023-02-28T20:18:52.232Z,101913.00
2023-02-28T20:21:20.148Z,101917.00
2023-02-28T20:23:51.338Z,101917.00
2023-02-28T20:26:20.513Z,101921.00
2023-02-28T20:28:49.319Z,101921.00
2023-02-28T20:31:19.886Z,101921.00
2023-02-28T20:33:49.679Z,101928.00
2023-02-28T20:36:20.775Z,101930.00
2023-02-28T20:38:48.848Z,101933.00
2023-02-28T20:41:17.260Z,101933.00
2023-02-28T20:43:46.004Z,101930.00
2023-02-28T20:46:14.613Z,101919.00
2023-02-28T20:48:42.666Z,101929.00
2023-02-28T20:51:11.085Z,101914.00
2023-02-28T20:53:41.794Z,101914.00
2023-02-28T20:56:25.755Z,101920.00
2023-02-28T20:58:56.340Z,101908.00
2023-02-28T21:01:26.424Z,101921.00
2023-02-28T21:04:08.338Z,101918.00
2023-02-28T21:06:43.440Z,101922.00
2023-02-28T21:09:12.533Z,101916.00
2023-02-28T21:11:40.810Z,101924.00
2023-02-28T21:14:17.413Z,101915.00
2023-02-28T21:16:45.416Z,101919.00
2023-02-28T21:19:13.821Z,101922.00
2023-02-28T21:21:44.093Z,101924.00
2023-02-28T21:24:13.698Z,101921.00
2023-02-28T21:26:42.818Z,101919.00
2023-02-28T21:29:11.542Z,101922.00
2023-02-28T21:31:40.280Z,101926.00
2023-02-28T21:34:09.716Z,101926.00
2023-02-28T21:36:40.336Z,101930.00
2023-02-28T21:39:15.633Z,101916.00
2023-02-28T21:41:43.984Z,101919.00
2023-02-28T21:44:18.958Z,101925.00
2023-02-28T21:46:49.289Z,101914.00
2023-02-28T21:49:17.635Z,101919.00
2023-02-28T21:51:46.002Z,101915.00
2023-02-28T21:54:17.020Z,101912.00
2023-02-28T21:56:45.090Z,101913.00
2023-02-28T21:59:13.133Z,101916.00
2023-02-28T22:01:45.646Z,101912.00
2023-02-28T22:04:22.381Z,101917.00
2023-02-28T22:06:57.492Z,101915.00
2023-02-28T22:09:26.321Z,101914.00
2023-02-28T22:11:54.352Z,101911.00
2023-02-28T22:14:22.376Z,101897.00
2023-02-28T22:16:53.778Z,101896.00
2023-02-28T22:19:23.132Z,101895.00
2023-02-28T22:21:52.029Z,101905.00
2023-02-28T22:24:24.514Z,101911.00
2023-02-28T22:26:53.231Z,101893.00
2023-02-28T22:29:21.341Z,101901.00
2023-02-28T22:31:49.402Z,101900.00
2023-02-28T22:34:17.715Z,101896.00
2023-02-28T22:36:45.633Z,101899.00
2023-02-28T22:39:13.758Z,101901.00
2023-02-28T22:41:41.708Z,101905.00
2023-02-28T22:44:09.918Z,101896.00
2023-02-28T22:46:37.798Z,101909.00
2023-02-28T22:49:06.731Z,101904.00
2023-02-28T22:51:35.495Z,101899.00
2023-02-28T22:54:04.044Z,101891.00
2023-02-28T22:56:32.435Z,101901.00
2023-02-28T22:59:01.274Z,101898.00
2023-02-28T23:01:31.623Z,101894.00
2023-02-28T23:04:00.061Z,101894.00
2023-02-28T23:06:34.328Z,101902.00
2023-02-28T23:09:05.657Z,101894.00
2023-02-28T23:11:43.478Z,101896.00
2023-02-28T23:14:15.413Z,101906.00
2023-02-28T23:16:44.949Z,101910.00
2023-02-28T23:19:33.088Z,101911.00
2023-02-28T23:22:03.013Z,101905.00
2023-02-28T23:24:32.917Z,101895.00
2023-02-28T23:27:04.697Z,101910.00
2023-02-28T23:29:33.526Z,101918.00
2023-02-28T23:32:01.570Z,101906.00
2023-02-28T23:34:32.476Z,101924.00
2023-02-28T23:37:01.716Z,101925.00
2023-02-28T23:39:30.372Z,101914.00
2023-02-28T23:42:02.071Z,101911.00
2023-02-28T23:44:32.399Z,101913.00
2023-02-28T23:47:01.091Z,101915.00
2023-02-28T23:49:29.107Z,101912.00
2023-02-28T23:51:57.824Z,101920.00
2023-02-28T23:54:25.620Z,101905.00
2023-02-28T23:56:54.518Z,101919.00
2023-02-28T23:59:22.391Z,101929.00
